Gloria de Dourados, Brazil
Current Conditions -  °F | °C
As of 6:00 PM on Thursday 30 Oct 2014 (Local Time) from SBPP Reporting Station
Thunderstorm Thunderstorm  
Wind Chill: 68°   Ceiling: 200
Heat Index: 68°   Visibility: 0.62mi
Dew Point: 68°   Wind: 7mph
Humidity: 100%   Direction: 140°SE
Pressure: 29.77"   Gusts: NA
Location:  22.42°S, 54.23°W
Report Text: SBPP 302100Z 14006KT 1000 -TSRA BR BKN002 FEW025CB OVC070 20/20 Q1008
Loading
Personal Weather Stations






























Interactive Weather Map
Tropical Storm Tracking
New forecast layout! Learn more

10-Day Weather Forecast

Advertisements
Track Severe Weather on mobile